sensor_id;sensor_type;location;lat;lon;timestamp;pressure;altitude;pressure_sealevel;temperature;humidity
64713;BME280;51140;45.340;5.980;2022-11-18T00:01:34;98054.53;;;9.87;100.00
64713;BME280;51140;45.340;5.980;2022-11-18T00:04:00;98053.69;;;9.87;100.00
64713;BME280;51140;45.340;5.980;2022-11-18T00:06:27;98052.22;;;9.81;100.00
64713;BME280;51140;45.340;5.980;2022-11-18T00:08:53;98050.41;;;9.83;100.00
64713;BME280;51140;45.340;5.980;2022-11-18T00:11:22;98049.56;;;9.83;100.00
64713;BME280;51140;45.340;5.980;2022-11-18T00:14:11;98047.94;;;9.80;100.00
64713;BME280;51140;45.340;5.980;2022-11-18T00:16:57;98048.72;;;9.82;100.00
64713;BME280;51140;45.340;5.980;2022-11-18T00:19:25;98054.69;;;9.84;100.00
64713;BME280;51140;45.340;5.980;2022-11-18T00:21:51;98061.63;;;9.84;100.00
64713;BME280;51140;45.340;5.980;2022-11-18T00:24:17;98078.94;;;9.85;100.00
64713;BME280;51140;45.340;5.980;2022-11-18T00:26:43;98088.44;;;9.86;100.00
64713;BME280;51140;45.340;5.980;2022-11-18T00:29:09;98093.78;;;9.83;100.00
64713;BME280;51140;45.340;5.980;2022-11-18T00:31:35;98102.72;;;9.77;100.00
64713;BME280;51140;45.340;5.980;2022-11-18T00:34:00;98109.00;;;9.73;100.00
64713;BME280;51140;45.340;5.980;2022-11-18T00:36:27;98119.56;;;9.70;100.00
64713;BME280;51140;45.340;5.980;2022-11-18T00:38:53;98134.31;;;9.69;100.00
64713;BME280;51140;45.340;5.980;2022-11-18T00:41:19;98134.31;;;9.69;100.00
64713;BME280;51140;45.340;5.980;2022-11-18T00:43:45;98137.00;;;9.68;100.00
64713;BME280;51140;45.340;5.980;2022-11-18T00:46:11;98132.88;;;9.64;100.00
64713;BME280;51140;45.340;5.980;2022-11-18T00:48:38;98126.53;;;9.51;100.00
64713;BME280;51140;45.340;5.980;2022-11-18T00:51:14;98082.88;;;9.40;100.00
64713;BME280;51140;45.340;5.980;2022-11-18T00:53:40;98061.22;;;9.39;100.00
64713;BME280;51140;45.340;5.980;2022-11-18T00:56:07;98043.19;;;9.36;100.00
64713;BME280;51140;45.340;5.980;2022-11-18T00:58:32;98044.78;;;9.39;100.00
64713;BME280;51140;45.340;5.980;2022-11-18T01:00:58;98058.00;;;9.34;100.00
64713;BME280;51140;45.340;5.980;2022-11-18T01:03:24;98043.41;;;9.32;100.00
64713;BME280;51140;45.340;5.980;2022-11-18T01:05:50;98065.41;;;9.06;100.00
64713;BME280;51140;45.340;5.980;2022-11-18T01:08:15;98072.38;;;9.05;100.00
64713;BME280;51140;45.340;5.980;2022-11-18T01:10:42;98085.59;;;8.82;100.00
64713;BME280;51140;45.340;5.980;2022-11-18T01:13:11;98090.47;;;8.69;100.00
64713;BME280;51140;45.340;5.980;2022-11-18T01:16:17;98097.28;;;8.72;100.00
64713;BME280;51140;45.340;5.980;2022-11-18T01:18:35;98097.09;;;8.95;100.00
64713;BME280;51140;45.340;5.980;2022-11-18T01:21:02;98108.34;;;8.96;100.00
64713;BME280;51140;45.340;5.980;2022-11-18T01:23:28;98107.63;;;8.92;100.00
64713;BME280;51140;45.340;5.980;2022-11-18T01:25:54;98115.50;;;8.91;100.00
64713;BME280;51140;45.340;5.980;2022-11-18T01:28:20;98124.75;;;8.96;100.00
64713;BME280;51140;45.340;5.980;2022-11-18T01:30:45;98135.94;;;8.98;100.00
64713;BME280;51140;45.340;5.980;2022-11-18T01:33:11;98134.81;;;9.04;100.00
64713;BME280;51140;45.340;5.980;2022-11-18T01:35:39;98132.06;;;9.07;100.00
64713;BME280;51140;45.340;5.980;2022-11-18T01:38:06;98139.16;;;9.03;100.00
64713;BME280;51140;45.340;5.980;2022-11-18T01:40:33;98143.66;;;9.00;100.00
64713;BME280;51140;45.340;5.980;2022-11-18T01:42:59;98144.28;;;8.86;100.00
64713;BME280;51140;45.340;5.980;2022-11-18T01:45:34;98146.34;;;8.78;100.00
64713;BME280;51140;45.340;5.980;2022-11-18T01:50:28;98163.06;;;8.72;100.00
64713;BME280;51140;45.340;5.980;2022-11-18T01:52:58;98163.66;;;8.59;100.00
64713;BME280;51140;45.340;5.980;2022-11-18T01:55:28;98166.53;;;8.53;100.00
64713;BME280;51140;45.340;5.980;2022-11-18T01:58:09;98157.97;;;8.51;100.00
64713;BME280;51140;45.340;5.980;2022-11-18T02:00:36;98151.28;;;8.45;100.00
64713;BME280;51140;45.340;5.980;2022-11-18T02:03:02;98153.19;;;8.41;100.00
64713;BME280;51140;45.340;5.980;2022-11-18T02:05:29;98160.81;;;8.44;100.00
64713;BME280;51140;45.340;5.980;2022-11-18T02:07:56;98171.84;;;8.50;100.00
64713;BME280;51140;45.340;5.980;2022-11-18T02:10:23;98176.28;;;8.47;100.00
64713;BME280;51140;45.340;5.980;2022-11-18T02:12:50;98186.00;;;8.42;100.00
64713;BME280;51140;45.340;5.980;2022-11-18T02:15:21;98174.03;;;8.38;100.00
64713;BME280;51140;45.340;5.980;2022-11-18T02:28:30;98182.06;;;8.32;100.00
64713;BME280;51140;45.340;5.980;2022-11-18T02:31:06;98197.59;;;8.34;100.00
64713;BME280;51140;45.340;5.980;2022-11-18T02:36:07;98211.22;;;8.39;100.00
64713;BME280;51140;45.340;5.980;2022-11-18T02:38:49;98218.09;;;8.40;100.00
64713;BME280;51140;45.340;5.980;2022-11-18T02:41:20;98208.53;;;8.42;100.00
64713;BME280;51140;45.340;5.980;2022-11-18T02:43:52;98207.72;;;8.40;100.00
64713;BME280;51140;45.340;5.980;2022-11-18T02:46:26;98189.44;;;8.43;100.00
64713;BME280;51140;45.340;5.980;2022-11-18T02:48:54;98183.16;;;8.48;100.00
64713;BME280;51140;45.340;5.980;2022-11-18T02:51:24;98172.06;;;8.45;100.00
64713;BME280;51140;45.340;5.980;2022-11-18T02:53:54;98175.72;;;8.39;100.00
64713;BME280;51140;45.340;5.980;2022-11-18T02:56:22;98156.06;;;8.34;100.00
64713;BME280;51140;45.340;5.980;2022-11-18T02:58:49;98169.03;;;8.34;100.00
64713;BME280;51140;45.340;5.980;2022-11-18T03:01:30;98168.25;;;8.32;100.00
64713;BME280;51140;45.340;5.980;2022-11-18T03:03:56;98157.81;;;8.33;100.00
64713;BME280;51140;45.340;5.980;2022-11-18T03:06:34;98159.53;;;8.33;100.00
64713;BME280;51140;45.340;5.980;2022-11-18T03:11:32;98147.06;;;8.42;100.00
64713;BME280;51140;45.340;5.980;2022-11-18T03:14:09;98148.16;;;8.37;100.00
64713;BME280;51140;45.340;5.980;2022-11-18T03:17:01;98153.56;;;8.31;100.00
64713;BME280;51140;45.340;5.980;2022-11-18T03:19:58;98153.41;;;8.35;100.00
64713;BME280;51140;45.340;5.980;2022-11-18T03:22:39;98145.69;;;8.34;100.00
64713;BME280;51140;45.340;5.980;2022-11-18T03:25:10;98157.63;;;8.38;100.00
64713;BME280;51140;45.340;5.980;2022-11-18T03:27:54;98159.44;;;8.36;100.00
64713;BME280;51140;45.340;5.980;2022-11-18T03:30:22;98173.31;;;8.35;100.00
64713;BME280;51140;45.340;5.980;2022-11-18T03:32:58;98166.44;;;8.34;100.00
64713;BME280;51140;45.340;5.980;2022-11-18T03:35:28;98176.03;;;8.32;100.00
64713;BME280;51140;45.340;5.980;2022-11-18T03:38:01;98192.28;;;8.37;100.00
64713;BME280;51140;45.340;5.980;2022-11-18T03:40:30;98195.78;;;8.36;100.00
64713;BME280;51140;45.340;5.980;2022-11-18T03:43:06;98195.00;;;8.34;100.00
64713;BME280;51140;45.340;5.980;2022-11-18T03:45:38;98206.94;;;8.38;100.00
64713;BME280;51140;45.340;5.980;2022-11-18T03:48:11;98202.38;;;8.44;100.00
64713;BME280;51140;45.340;5.980;2022-11-18T03:50:43;98211.50;;;8.53;100.00
64713;BME280;51140;45.340;5.980;2022-11-18T03:53:10;98193.91;;;8.60;100.00
64713;BME280;51140;45.340;5.980;2022-11-18T03:55:39;98196.84;;;8.52;100.00
64713;BME280;51140;45.340;5.980;2022-11-18T03:58:14;98196.25;;;8.45;100.00
64713;BME280;51140;45.340;5.980;2022-11-18T04:00:47;98199.44;;;8.52;100.00
64713;BME280;51140;45.340;5.980;2022-11-18T04:03:14;98219.56;;;8.47;100.00
64713;BME280;51140;45.340;5.980;2022-11-18T04:05:41;98225.84;;;8.41;100.00
64713;BME280;51140;45.340;5.980;2022-11-18T04:08:38;98233.94;;;8.34;100.00
64713;BME280;51140;45.340;5.980;2022-11-18T04:11:08;98234.03;;;8.31;100.00
64713;BME280;51140;45.340;5.980;2022-11-18T04:13:56;98234.34;;;8.23;100.00
64713;BME280;51140;45.340;5.980;2022-11-18T04:16:22;98244.91;;;8.18;100.00
64713;BME280;51140;45.340;5.980;2022-11-18T04:18:47;98247.50;;;8.18;100.00
64713;BME280;51140;45.340;5.980;2022-11-18T04:21:12;98248.47;;;8.16;100.00
64713;BME280;51140;45.340;5.980;2022-11-18T04:23:38;98249.44;;;8.13;100.00
64713;BME280;51140;45.340;5.980;2022-11-18T04:26:03;98252.88;;;8.14;100.00
64713;BME280;51140;45.340;5.980;2022-11-18T04:28:28;98256.56;;;8.08;100.00
64713;BME280;51140;45.340;5.980;2022-11-18T04:30:54;98264.84;;;8.18;100.00
64713;BME280;51140;45.340;5.980;2022-11-18T04:33:19;98273.97;;;8.06;100.00
64713;BME280;51140;45.340;5.980;2022-11-18T04:35:45;98282.22;;;8.16;100.00
64713;BME280;51140;45.340;5.980;2022-11-18T04:38:11;98279.94;;;8.08;100.00
64713;BME280;51140;45.340;5.980;2022-11-18T04:40:36;98280.78;;;8.09;100.00
64713;BME280;51140;45.340;5.980;2022-11-18T04:43:02;98268.97;;;8.02;100.00
64713;BME280;51140;45.340;5.980;2022-11-18T04:45:27;98255.13;;;8.01;100.00
64713;BME280;51140;45.340;5.980;2022-11-18T04:47:52;98256.81;;;8.02;100.00
64713;BME280;51140;45.340;5.980;2022-11-18T04:50:18;98257.72;;;8.01;100.00
64713;BME280;51140;45.340;5.980;2022-11-18T04:52:43;98261.31;;;7.97;100.00
64713;BME280;51140;45.340;5.980;2022-11-18T04:55:09;98266.63;;;7.94;100.00
64713;BME280;51140;45.340;5.980;2022-11-18T04:57:34;98271.75;;;7.96;100.00
64713;BME280;51140;45.340;5.980;2022-11-18T04:59:59;98284.72;;;7.96;100.00
64713;BME280;51140;45.340;5.980;2022-11-18T05:02:25;98282.44;;;7.88;100.00
64713;BME280;51140;45.340;5.980;2022-11-18T05:04:50;98280.88;;;7.84;100.00
64713;BME280;51140;45.340;5.980;2022-11-18T05:07:15;98284.25;;;7.86;100.00
64713;BME280;51140;45.340;5.980;2022-11-18T05:09:41;98297.34;;;7.83;100.00
64713;BME280;51140;45.340;5.980;2022-11-18T05:12:11;98293.72;;;7.87;100.00
64713;BME280;51140;45.340;5.980;2022-11-18T05:14:55;98304.94;;;7.88;100.00
64713;BME280;51140;45.340;5.980;2022-11-18T05:17:21;98313.13;;;7.77;100.00
64713;BME280;51140;45.340;5.980;2022-11-18T05:19:46;98302.22;;;7.69;100.00
64713;BME280;51140;45.340;5.980;2022-11-18T05:22:13;98301.69;;;7.82;100.00
64713;BME280;51140;45.340;5.980;2022-11-18T05:24:38;98299.75;;;7.88;100.00
64713;BME280;51140;45.340;5.980;2022-11-18T05:27:04;98301.69;;;7.82;100.00
64713;BME280;51140;45.340;5.980;2022-11-18T05:29:29;98304.44;;;7.78;100.00
64713;BME280;51140;45.340;5.980;2022-11-18T05:31:55;98306.13;;;7.79;100.00
64713;BME280;51140;45.340;5.980;2022-11-18T05:34:20;98307.44;;;7.67;100.00
64713;BME280;51140;45.340;5.980;2022-11-18T05:36:45;98309.38;;;7.62;100.00
64713;BME280;51140;45.340;5.980;2022-11-18T05:39:11;98305.03;;;7.63;100.00
64713;BME280;51140;45.340;5.980;2022-11-18T05:41:36;98325.06;;;7.58;100.00
64713;BME280;51140;45.340;5.980;2022-11-18T05:44:20;98330.31;;;7.56;100.00
64713;BME280;51140;45.340;5.980;2022-11-18T05:46:45;98343.06;;;7.62;100.00
64713;BME280;51140;45.340;5.980;2022-11-18T05:49:11;98354.00;;;7.70;100.00
64713;BME280;51140;45.340;5.980;2022-11-18T05:51:36;98347.75;;;7.76;100.00
64713;BME280;51140;45.340;5.980;2022-11-18T05:54:03;98351.13;;;7.78;100.00
64713;BME280;51140;45.340;5.980;2022-11-18T05:56:34;98358.91;;;7.78;100.00
64713;BME280;51140;45.340;5.980;2022-11-18T05:59:01;98360.03;;;7.71;100.00
64713;BME280;51140;45.340;5.980;2022-11-18T06:01:34;98368.84;;;7.67;100.00
64713;BME280;51140;45.340;5.980;2022-11-18T06:04:02;98371.38;;;7.68;100.00
64713;BME280;51140;45.340;5.980;2022-11-18T06:06:28;98379.09;;;7.70;100.00
64713;BME280;51140;45.340;5.980;2022-11-18T06:09:02;98382.59;;;7.69;100.00
64713;BME280;51140;45.340;5.980;2022-11-18T06:11:30;98379.88;;;7.72;100.00
64713;BME280;51140;45.340;5.980;2022-11-18T06:14:03;98393.69;;;7.72;100.00
64713;BME280;51140;45.340;5.980;2022-11-18T06:16:32;98396.34;;;7.71;100.00
64713;BME280;51140;45.340;5.980;2022-11-18T06:19:00;98398.72;;;7.77;100.00
64713;BME280;51140;45.340;5.980;2022-11-18T06:21:26;98402.19;;;7.76;100.00
64713;BME280;51140;45.340;5.980;2022-11-18T06:23:52;98407.63;;;7.70;100.00
64713;BME280;51140;45.340;5.980;2022-11-18T06:26:17;98407.06;;;7.60;100.00
64713;BME280;51140;45.340;5.980;2022-11-18T06:28:44;98416.50;;;7.63;100.00
64713;BME280;51140;45.340;5.980;2022-11-18T06:31:11;98414.81;;;7.62;100.00
64713;BME280;51140;45.340;5.980;2022-11-18T06:33:36;98430.28;;;7.65;100.00
64713;BME280;51140;45.340;5.980;2022-11-18T06:36:01;98437.16;;;7.66;100.00
64713;BME280;51140;45.340;5.980;2022-11-18T06:38:27;98439.53;;;7.72;100.00
64713;BME280;51140;45.340;5.980;2022-11-18T06:40:52;98441.16;;;7.74;100.00
64713;BME280;51140;45.340;5.980;2022-11-18T06:43:18;98449.22;;;7.67;100.00
64713;BME280;51140;45.340;5.980;2022-11-18T06:46:04;98455.19;;;7.69;100.00
64713;BME280;51140;45.340;5.980;2022-11-18T06:48:48;98456.81;;;7.71;100.00
64713;BME280;51140;45.340;5.980;2022-11-18T06:51:13;98447.69;;;7.60;100.00
64713;BME280;51140;45.340;5.980;2022-11-18T06:53:38;98445.13;;;7.60;100.00
64713;BME280;51140;45.340;5.980;2022-11-18T06:56:06;98440.81;;;7.59;100.00
64713;BME280;51140;45.340;5.980;2022-11-18T06:58:31;98435.66;;;7.59;100.00
64713;BME280;51140;45.340;5.980;2022-11-18T07:00:57;98430.63;;;7.54;100.00
64713;BME280;51140;45.340;5.980;2022-11-18T07:03:22;98434.34;;;7.47;100.00
64713;BME280;51140;45.340;5.980;2022-11-18T07:05:47;98442.44;;;7.38;100.00
64713;BME280;51140;45.340;5.980;2022-11-18T07:08:13;98438.50;;;7.26;100.00
64713;BME280;51140;45.340;5.980;2022-11-18T07:10:38;98447.38;;;7.19;100.00
64713;BME280;51140;45.340;5.980;2022-11-18T07:13:03;98457.34;;;7.05;100.00
64713;BME280;51140;45.340;5.980;2022-11-18T07:15:29;98465.16;;;7.03;100.00
64713;BME280;51140;45.340;5.980;2022-11-18T07:17:54;98463.44;;;7.04;100.00
64713;BME280;51140;45.340;5.980;2022-11-18T07:20:19;98459.97;;;7.03;100.00
64713;BME280;51140;45.340;5.980;2022-11-18T07:22:45;98461.69;;;7.04;100.00
64713;BME280;51140;45.340;5.980;2022-11-18T07:25:10;98462.63;;;7.02;100.00
64713;BME280;51140;45.340;5.980;2022-11-18T07:27:35;98465.53;;;6.93;100.00
64713;BME280;51140;45.340;5.980;2022-11-18T07:30:01;98471.75;;;6.87;100.00
64713;BME280;51140;45.340;5.980;2022-11-18T07:32:26;98483.00;;;6.86;100.00
64713;BME280;51140;45.340;5.980;2022-11-18T07:34:52;98492.66;;;6.81;100.00
64713;BME280;51140;45.340;5.980;2022-11-18T07:37:17;98501.97;;;6.86;100.00
64713;BME280;51140;45.340;5.980;2022-11-18T07:39:42;98499.03;;;6.97;100.00
64713;BME280;51140;45.340;5.980;2022-11-18T07:42:08;98505.63;;;7.34;100.00
64713;BME280;51140;45.340;5.980;2022-11-18T07:44:33;98514.03;;;7.67;100.00
64713;BME280;51140;45.340;5.980;2022-11-18T07:46:59;98528.63;;;7.94;100.00
64713;BME280;51140;45.340;5.980;2022-11-18T07:49:24;98534.47;;;8.24;100.00
64713;BME280;51140;45.340;5.980;2022-11-18T07:51:50;98536.00;;;8.30;100.00
64713;BME280;51140;45.340;5.980;2022-11-18T07:54:15;98537.63;;;8.32;100.00
64713;BME280;51140;45.340;5.980;2022-11-18T07:56:41;98543.59;;;8.36;100.00
64713;BME280;51140;45.340;5.980;2022-11-18T07:59:07;98548.88;;;8.33;100.00
64713;BME280;51140;45.340;5.980;2022-11-18T08:01:33;98541.19;;;8.30;100.00
64713;BME280;51140;45.340;5.980;2022-11-18T08:04:07;98554.19;;;8.30;100.00
64713;BME280;51140;45.340;5.980;2022-11-18T08:06:33;98544.34;;;8.14;100.00
64713;BME280;51140;45.340;5.980;2022-11-18T08:09:00;98552.81;;;7.95;100.00
64713;BME280;51140;45.340;5.980;2022-11-18T08:11:25;98545.47;;;7.82;100.00
64713;BME280;51140;45.340;5.980;2022-11-18T08:13:51;98551.56;;;7.81;100.00
64713;BME280;51140;45.340;5.980;2022-11-18T08:16:19;98560.13;;;7.83;100.00
64713;BME280;51140;45.340;5.980;2022-11-18T08:18:45;98552.41;;;7.82;100.00
64713;BME280;51140;45.340;5.980;2022-11-18T08:21:11;98558.16;;;7.90;100.00
64713;BME280;51140;45.340;5.980;2022-11-18T08:23:37;98561.00;;;8.09;100.00
64713;BME280;51140;45.340;5.980;2022-11-18T08:26:08;98566.16;;;8.34;100.00
64713;BME280;51140;45.340;5.980;2022-11-18T08:28:34;98573.84;;;8.37;100.00
64713;BME280;51140;45.340;5.980;2022-11-18T08:30:59;98572.56;;;8.24;100.00
64713;BME280;51140;45.340;5.980;2022-11-18T08:33:25;98585.06;;;8.37;100.00
64713;BME280;51140;45.340;5.980;2022-11-18T08:35:51;98592.50;;;8.71;100.00
64713;BME280;51140;45.340;5.980;2022-11-18T08:38:17;98603.06;;;9.12;100.00
64713;BME280;51140;45.340;5.980;2022-11-18T08:40:44;98600.19;;;9.41;100.00
64713;BME280;51140;45.340;5.980;2022-11-18T08:43:11;98591.13;;;9.52;100.00
64713;BME280;51140;45.340;5.980;2022-11-18T08:45:38;98581.59;;;9.30;100.00
64713;BME280;51140;45.340;5.980;2022-11-18T08:48:04;98565.19;;;9.06;100.00
64713;BME280;51140;45.340;5.980;2022-11-18T08:50:29;98554.84;;;9.05;100.00
64713;BME280;51140;45.340;5.980;2022-11-18T08:52:55;98549.28;;;9.14;100.00
64713;BME280;51140;45.340;5.980;2022-11-18T08:55:20;98545.31;;;9.27;100.00
64713;BME280;51140;45.340;5.980;2022-11-18T08:57:45;98541.50;;;9.36;100.00
64713;BME280;51140;45.340;5.980;2022-11-18T09:00:12;98539.88;;;9.54;100.00
64713;BME280;51140;45.340;5.980;2022-11-18T09:02:38;98547.63;;;9.55;100.00
64713;BME280;51140;45.340;5.980;2022-11-18T09:05:04;98547.06;;;9.69;100.00
64713;BME280;51140;45.340;5.980;2022-11-18T09:07:29;98539.38;;;9.86;100.00
64713;BME280;51140;45.340;5.980;2022-11-18T09:09:55;98542.63;;;9.91;100.00
64713;BME280;51140;45.340;5.980;2022-11-18T09:12:20;98539.00;;;9.75;100.00
64713;BME280;51140;45.340;5.980;2022-11-18T09:14:46;98528.81;;;9.49;100.00
64713;BME280;51140;45.340;5.980;2022-11-18T09:17:12;98531.53;;;9.25;100.00
64713;BME280;51140;45.340;5.980;2022-11-18T09:19:38;98529.72;;;9.27;100.00
64713;BME280;51140;45.340;5.980;2022-11-18T09:22:04;98526.09;;;9.31;100.00
64713;BME280;51140;45.340;5.980;2022-11-18T09:24:30;98537.72;;;9.43;100.00
64713;BME280;51140;45.340;5.980;2022-11-18T09:26:56;98542.91;;;9.85;100.00
64713;BME280;51140;45.340;5.980;2022-11-18T09:29:21;98543.94;;;10.42;100.00
64713;BME280;51140;45.340;5.980;2022-11-18T09:31:50;98540.28;;;10.65;100.00
64713;BME280;51140;45.340;5.980;2022-11-18T09:34:16;98528.09;;;10.65;100.00
64713;BME280;51140;45.340;5.980;2022-11-18T09:36:41;98517.47;;;10.51;100.00
64713;BME280;51140;45.340;5.980;2022-11-18T09:39:07;98502.41;;;10.58;100.00
64713;BME280;51140;45.340;5.980;2022-11-18T09:49:30;98490.84;;;10.63;100.00
64713;BME280;51140;45.340;5.980;2022-11-18T09:52:01;98490.84;;;10.63;100.00
64713;BME280;51140;45.340;5.980;2022-11-18T09:54:29;98490.72;;;10.66;100.00
64713;BME280;51140;45.340;5.980;2022-11-18T09:56:56;98490.66;;;11.04;100.00
64713;BME280;51140;45.340;5.980;2022-11-18T09:59:24;98492.72;;;11.34;100.00
64713;BME280;51140;45.340;5.980;2022-11-18T10:01:51;98490.34;;;11.29;100.00
64713;BME280;51140;45.340;5.980;2022-11-18T10:04:19;98486.84;;;11.11;100.00
64713;BME280;51140;45.340;5.980;2022-11-18T10:06:47;98490.34;;;10.74;100.00
64713;BME280;51140;45.340;5.980;2022-11-18T10:15:15;98490.22;;;11.13;100.00
64713;BME280;51140;45.340;5.980;2022-11-18T10:21:19;98486.06;;;10.92;100.00
64713;BME280;51140;45.340;5.980;2022-11-18T10:26:04;98499.38;;;10.86;100.00
64713;BME280;51140;45.340;5.980;2022-11-18T10:28:30;98508.81;;;10.88;100.00
64713;BME280;51140;45.340;5.980;2022-11-18T10:31:09;98506.81;;;10.75;100.00
64713;BME280;51140;45.340;5.980;2022-11-18T10:33:35;98506.91;;;10.73;100.00
64713;BME280;51140;45.340;5.980;2022-11-18T10:38:42;98505.47;;;10.28;100.00
64713;BME280;51140;45.340;5.980;2022-11-18T10:41:13;98504.63;;;10.28;100.00
64713;BME280;51140;45.340;5.980;2022-11-18T10:46:17;98515.47;;;10.38;100.00
64713;BME280;51140;45.340;5.980;2022-11-18T10:48:43;98520.66;;;10.58;100.00
64713;BME280;51140;45.340;5.980;2022-11-18T10:51:23;98528.22;;;11.00;100.00
64713;BME280;51140;45.340;5.980;2022-11-18T10:53:48;98531.00;;;11.50;100.00
64713;BME280;51140;45.340;5.980;2022-11-18T10:56:14;98519.81;;;12.00;100.00
64713;BME280;51140;45.340;5.980;2022-11-18T10:58:42;98499.75;;;12.18;100.00
64713;BME280;51140;45.340;5.980;2022-11-18T11:01:24;98420.47;;;12.35;100.00
64713;BME280;51140;45.340;5.980;2022-11-18T11:04:01;98345.16;;;12.43;100.00
64713;BME280;51140;45.340;5.980;2022-11-18T11:11:37;98270.28;;;12.58;100.00
64713;BME280;51140;45.340;5.980;2022-11-18T11:16:55;98182.13;;;12.90;100.00
64713;BME280;51140;45.340;5.980;2022-11-18T11:19:25;98164.47;;;12.79;100.00
64713;BME280;51140;45.340;5.980;2022-11-18T11:21:53;98172.66;;;12.59;100.00
64713;BME280;51140;45.340;5.980;2022-11-18T11:24:19;98212.84;;;12.42;100.00
64713;BME280;51140;45.340;5.980;2022-11-18T11:27:17;98239.50;;;12.63;100.00
64713;BME280;51140;45.340;5.980;2022-11-18T11:30:02;98233.59;;;12.89;100.00
64713;BME280;51140;45.340;5.980;2022-11-18T11:35:26;98116.59;;;12.93;100.00
64713;BME280;51140;45.340;5.980;2022-11-18T11:37:57;98057.38;;;12.92;100.00
64713;BME280;51140;45.340;5.980;2022-11-18T11:40:33;97972.22;;;12.46;100.00
64713;BME280;51140;45.340;5.980;2022-11-18T11:46:31;97998.06;;;11.64;100.00
64713;BME280;51140;45.340;5.980;2022-11-18T11:49:14;98141.63;;;11.47;100.00
64713;BME280;51140;45.340;5.980;2022-11-18T11:51:55;98100.75;;;11.47;100.00
64713;BME280;51140;45.340;5.980;2022-11-18T11:54:46;98093.53;;;11.37;100.00
64713;BME280;51140;45.340;5.980;2022-11-18T11:57:28;98098.91;;;11.34;100.00
64713;BME280;51140;45.340;5.980;2022-11-18T12:00:03;98084.59;;;11.41;100.00
64713;BME280;51140;45.340;5.980;2022-11-18T12:05:32;98117.22;;;11.48;100.00
64713;BME280;51140;45.340;5.980;2022-11-18T12:08:02;98084.06;;;11.50;100.00
64713;BME280;51140;45.340;5.980;2022-11-18T12:10:34;98057.31;;;11.62;100.00
64713;BME280;51140;45.340;5.980;2022-11-18T12:20:52;98215.84;;;11.41;100.00
64713;BME280;51140;45.340;5.980;2022-11-18T12:25:51;98191.00;;;12.13;100.00
64713;BME280;51140;45.340;5.980;2022-11-18T12:33:56;98052.44;;;12.30;100.00
64713;BME280;51140;45.340;5.980;2022-11-18T12:36:30;98026.94;;;11.91;100.00
64713;BME280;51140;45.340;5.980;2022-11-18T12:41:58;98037.50;;;11.74;100.00
64713;BME280;51140;45.340;5.980;2022-11-18T12:44:44;98053.13;;;11.89;100.00
64713;BME280;51140;45.340;5.980;2022-11-18T12:47:11;98001.28;;;11.83;100.00
64713;BME280;51140;45.340;5.980;2022-11-18T12:54:55;97923.25;;;12.21;100.00
64713;BME280;51140;45.340;5.980;2022-11-18T12:57:33;97852.47;;;12.26;100.00
64713;BME280;51140;45.340;5.980;2022-11-18T13:02:56;97758.53;;;12.51;100.00
64713;BME280;51140;45.340;5.980;2022-11-18T13:05:23;97756.69;;;12.66;100.00
64713;BME280;51140;45.340;5.980;2022-11-18T13:08:01;97766.50;;;12.63;100.00
64713;BME280;51140;45.340;5.980;2022-11-18T13:10:52;97687.69;;;12.56;100.00
64713;BME280;51140;45.340;5.980;2022-11-18T13:13:39;97742.09;;;12.89;100.00
64713;BME280;51140;45.340;5.980;2022-11-18T13:16:23;97692.31;;;12.91;100.00
64713;BME280;51140;45.340;5.980;2022-11-18T13:19:07;97707.88;;;13.05;100.00
64713;BME280;51140;45.340;5.980;2022-11-18T13:21:33;97612.31;;;13.01;100.00
64713;BME280;51140;45.340;5.980;2022-11-18T13:24:19;97570.59;;;12.99;100.00
64713;BME280;51140;45.340;5.980;2022-11-18T13:26:46;97583.66;;;12.99;100.00
64713;BME280;51140;45.340;5.980;2022-11-18T13:34:52;97571.88;;;12.81;100.00
64713;BME280;51140;45.340;5.980;2022-11-18T13:37:29;97600.94;;;12.64;100.00
64713;BME280;51140;45.340;5.980;2022-11-18T13:39:55;97583.47;;;12.26;100.00
64713;BME280;51140;45.340;5.980;2022-11-18T13:42:23;97609.41;;;11.89;100.00
64713;BME280;51140;45.340;5.980;2022-11-18T13:44:57;97602.03;;;11.69;100.00
64713;BME280;51140;45.340;5.980;2022-11-18T13:47:27;97653.94;;;11.59;100.00
64713;BME280;51140;45.340;5.980;2022-11-18T13:52:33;97656.19;;;10.96;100.00
64713;BME280;51140;45.340;5.980;2022-11-18T13:55:04;97687.22;;;10.71;100.00
64713;BME280;51140;45.340;5.980;2022-11-18T13:57:31;97738.16;;;10.46;100.00
64713;BME280;51140;45.340;5.980;2022-11-18T14:00:02;97787.91;;;10.42;100.00
64713;BME280;51140;45.340;5.980;2022-11-18T14:02:29;97841.22;;;10.50;100.00
64713;BME280;51140;45.340;5.980;2022-11-18T14:04:57;97900.88;;;10.55;100.00
64713;BME280;51140;45.340;5.980;2022-11-18T14:07:31;97880.13;;;10.53;100.00
64713;BME280;51140;45.340;5.980;2022-11-18T14:12:31;97880.09;;;10.69;100.00
64713;BME280;51140;45.340;5.980;2022-11-18T14:15:34;97819.03;;;10.89;100.00
64713;BME280;51140;45.340;5.980;2022-11-18T14:18:00;97805.09;;;11.04;100.00
64713;BME280;51140;45.340;5.980;2022-11-18T14:20:28;97774.59;;;11.20;100.00
64713;BME280;51140;45.340;5.980;2022-11-18T14:22:56;97721.16;;;11.27;100.00
64713;BME280;51140;45.340;5.980;2022-11-18T14:25:35;97637.56;;;11.02;100.00
64713;BME280;51140;45.340;5.980;2022-11-18T14:28:24;97609.09;;;10.85;100.00
64713;BME280;51140;45.340;5.980;2022-11-18T14:33:37;97603.28;;;11.08;100.00
64713;BME280;51140;45.340;5.980;2022-11-18T14:38:36;97514.81;;;10.92;100.00
64713;BME280;51140;45.340;5.980;2022-11-18T14:41:04;97510.09;;;10.85;100.00
64713;BME280;51140;45.340;5.980;2022-11-18T14:43:30;97491.13;;;10.68;100.00
64713;BME280;51140;45.340;5.980;2022-11-18T14:45:58;97534.00;;;10.63;100.00
64713;BME280;51140;45.340;5.980;2022-11-18T14:48:25;97534.69;;;10.52;100.00
64713;BME280;51140;45.340;5.980;2022-11-18T14:50:52;97535.91;;;10.47;100.00
64713;BME280;51140;45.340;5.980;2022-11-18T14:53:18;97567.16;;;10.47;100.00